Time;durP1;ratioP1;P1;durP2;ratioP2;P2;SDS_P1;SDS_P2;PMS_P1;PMS_P2;Temp;Humidity;BMP_temperature;BMP_pressure;BME280_temperature;BME280_humidity;BME280_pressure;Samples;Min_cycle;Max_cycle;Signal;HPM_P1;HPM_P2
2022/07/01 00:02:07;;;;;;;2.80;2.00;;;;;;;28.54;23.71;100751.34;5048653;28;20061;-80
2022/07/01 00:04:34;;;;;;;2.67;2.10;;;;;;;28.63;23.09;100755.31;5048011;28;20509;-82
2022/07/01 00:07:01;;;;;;;3.47;1.90;;;;;;;28.53;23.34;100746.97;5047500;28;20049;-81
2022/07/01 00:09:27;;;;;;;3.85;2.15;;;;;;;28.36;23.02;100735.25;5046366;28;20057;-80
2022/07/01 00:11:54;;;;;;;5.80;2.28;;;;;;;28.34;23.38;100740.94;5046264;28;20057;-80
2022/07/01 00:14:22;;;;;;;3.13;2.42;;;;;;;28.35;23.22;100761.69;5047161;28;20060;-82
2022/07/01 00:16:50;;;;;;;6.03;2.88;;;;;;;27.87;23.89;100695.78;5062768;28;20048;-80
2022/07/01 00:19:17;;;;;;;9.27;4.78;;;;;;;27.97;23.40;100727.03;5045924;28;20049;-81
2022/07/01 00:21:44;;;;;;;11.38;4.60;;;;;;;27.05;23.54;100582.59;5045416;28;20059;-81
2022/07/01 00:24:10;;;;;;;7.93;4.50;;;;;;;28.05;23.77;100767.53;5045925;28;20060;-81
2022/07/01 00:26:37;;;;;;;12.60;5.18;;;;;;;27.53;23.58;100666.84;5047111;28;20063;-82
2022/07/01 00:29:04;;;;;;;6.40;4.95;;;;;;;27.21;23.77;100640.09;5047041;28;20488;-81
2022/07/01 00:31:31;;;;;;;7.82;4.95;;;;;;;27.21;23.65;100637.38;5045830;28;20056;-80
2022/07/01 00:33:58;;;;;;;6.65;5.10;;;;;;;27.94;23.97;100742.00;5045389;28;20068;-79
2022/07/01 00:36:24;;;;;;;8.70;5.22;;;;;;;27.26;23.63;100624.69;5045715;28;20121;-80
2022/07/01 00:38:55;;;;;;;;;;;;;;;28.02;23.52;100751.66;5047294;28;20080;-82
2022/07/01 00:41:22;;;;;;;10.00;6.82;;;;;;;28.13;23.38;100761.66;5029459;28;19963;-81
2022/07/01 00:43:49;;;;;;;9.73;7.05;;;;;;;28.19;23.09;100752.47;5029046;28;20134;-81
2022/07/01 00:46:23;;;;;;;13.63;6.80;;;;;;;27.92;24.10;100731.31;5030070;28;20136;-81
2022/07/01 00:48:56;;;;;;;14.80;6.83;;;;;;;28.00;24.03;100760.09;5046442;28;20140;-81
2022/07/01 00:51:23;;;;;;;;;;;;;;;27.92;23.78;100764.06;5029128;28;20307;-82
2022/07/01 00:53:50;;;;;;;9.93;6.00;;;;;;;27.53;24.26;100699.56;5045113;28;19929;-82
2022/07/01 00:56:18;;;;;;;10.45;6.80;;;;;;;27.92;23.96;100769.50;5045363;28;20558;-81
2022/07/01 00:58:45;;;;;;;8.95;6.53;;;;;;;27.48;23.99;100689.38;5045455;28;20566;-82
2022/07/01 01:01:15;;;;;;;7.73;6.40;;;;;;;26.92;24.21;100612.91;5061511;28;20049;-81
2022/07/01 01:03:42;;;;;;;9.10;6.15;;;;;;;27.61;24.19;100735.41;5061492;28;20079;-81
2022/07/01 01:06:09;;;;;;;10.95;7.40;;;;;;;27.82;23.85;100769.34;5044904;28;20072;-82
2022/07/01 01:08:37;;;;;;;10.27;7.80;;;;;;;27.83;23.58;100765.53;5045244;28;20045;-81
2022/07/01 01:11:05;;;;;;;10.00;7.50;;;;;;;27.64;24.46;100748.53;5046293;28;20063;-81
2022/07/01 01:13:31;;;;;;;11.85;7.95;;;;;;;27.70;24.47;100776.75;5046683;28;20049;-81
2022/07/01 01:15:58;;;;;;;13.55;8.90;;;;;;;27.56;24.47;100778.13;5045299;28;20496;-80
2022/07/01 01:18:25;;;;;;;14.55;9.98;;;;;;;27.22;24.45;100735.25;5046008;28;20061;-80
2022/07/01 01:20:53;;;;;;;15.18;10.02;;;;;;;27.27;24.61;100745.44;5044738;28;20083;-80
2022/07/01 01:23:20;;;;;;;17.05;10.25;;;;;;;27.32;24.93;100775.50;5045043;28;20052;-82
2022/07/01 01:25:48;;;;;;;15.32;11.27;;;;;;;27.24;24.45;100752.19;5046445;28;20053;-80
2022/07/01 01:28:14;;;;;;;19.38;14.25;;;;;;;27.37;24.74;100769.31;5044949;28;20088;-81
2022/07/01 01:30:41;;;;;;;18.98;14.93;;;;;;;27.40;24.96;100777.00;5046280;28;20052;-81
2022/07/01 01:33:08;;;;;;;23.45;16.67;;;;;;;27.42;25.10;100778.41;5044865;28;20554;-80
2022/07/01 01:35:35;;;;;;;27.55;19.25;;;;;;;27.44;25.27;100779.00;5044580;28;20551;-81
2022/07/01 01:38:04;;;;;;;31.95;22.30;;;;;;;27.50;25.04;100777.19;5046825;28;20102;-81
2022/07/01 01:40:31;;;;;;;32.42;23.88;;;;;;;27.41;25.30;100756.88;5046350;28;20064;-82
2022/07/01 01:42:57;;;;;;;29.60;23.40;;;;;;;27.51;25.00;100778.84;5046112;28;20053;-79
2022/07/01 01:45:24;;;;;;;29.33;23.33;;;;;;;27.45;24.98;100764.31;5028277;28;20743;-81
2022/07/01 01:47:51;;;;;;;28.23;23.08;;;;;;;27.29;25.19;100754.19;5049729;28;20052;-81
2022/07/01 01:50:19;;;;;;;27.13;22.23;;;;;;;27.55;24.50;100779.19;5032297;28;20494;-81
2022/07/01 01:52:46;;;;;;;29.55;22.35;;;;;;;27.46;24.89;100755.06;5050275;28;20052;-82
2022/07/01 01:55:13;;;;;;;28.05;22.00;;;;;;;27.72;24.93;100780.06;5049801;28;20048;-81
2022/07/01 01:57:40;;;;;;;27.73;22.80;;;;;;;27.75;24.72;100763.19;5048502;28;20558;-81
2022/07/01 02:00:08;;;;;;;30.55;23.58;;;;;;;27.59;24.53;100725.81;5050284;28;20496;-81
2022/07/01 02:02:36;;;;;;;35.97;22.70;;;;;;;27.03;24.82;100647.41;5048827;28;20053;-81
2022/07/01 02:05:05;;;;;;;33.05;23.10;;;;;;;27.41;25.42;100724.97;5070537;28;20048;-81
2022/07/01 02:07:35;;;;;;;25.23;21.75;;;;;;;27.59;25.56;100772.19;5052611;28;20049;-81
2022/07/01 02:10:02;;;;;;;30.05;22.50;;;;;;;27.51;25.59;100772.59;5051793;28;20072;-81
2022/07/01 02:12:28;;;;;;;31.50;23.42;;;;;;;27.31;25.48;100767.56;5070328;28;20056;-80
2022/07/01 02:14:55;;;;;;;27.88;23.23;;;;;;;27.08;25.61;100728.41;5052332;28;20052;-81
2022/07/01 02:17:22;;;;;;;32.90;24.92;;;;;;;27.11;26.23;100746.16;5052278;28;20071;-80
2022/07/01 02:19:48;;;;;;;30.48;24.23;;;;;;;26.57;26.20;100681.91;5069831;28;20044;-81
2022/07/01 02:22:15;;;;;;;28.35;23.65;;;;;;;26.88;26.72;100745.19;5051885;28;20060;-83
2022/07/01 02:24:43;;;;;;;27.95;24.17;;;;;;;26.81;26.86;100739.03;5051552;28;20056;-81
2022/07/01 02:27:12;;;;;;;33.90;25.88;;;;;;;26.81;26.67;100748.03;5051093;28;20420;-82
2022/07/01 02:29:38;;;;;;;33.03;23.98;;;;;;;26.48;26.92;100696.91;5051754;28;20399;-79
2022/07/01 02:32:06;;;;;;;33.22;24.92;;;;;;;27.04;27.29;100779.00;5051344;28;20056;-81
2022/07/01 02:34:33;;;;;;;32.75;24.55;;;;;;;26.80;27.57;100734.69;5052409;28;20095;-81
2022/07/01 02:36:59;;;;;;;33.78;25.60;;;;;;;27.01;27.66;100780.31;5069172;28;20098;-81
2022/07/01 02:39:26;;;;;;;37.63;26.05;;;;;;;27.17;27.34;100794.25;5040102;28;20060;-81
2022/07/01 02:44:38;;;;;;;33.35;25.15;;;;;;;26.94;27.88;100762.44;5028756;28;20053;-79
2022/07/01 02:47:05;;;;;;;33.97;26.42;;;;;;;26.99;28.12;100777.03;5029445;28;20064;-82
2022/07/01 02:49:32;;;;;;;30.42;24.23;;;;;;;27.13;28.07;100806.69;5011701;28;20062;-81
2022/07/01 02:51:59;;;;;;;28.10;24.05;;;;;;;27.07;28.18;100803.06;5011785;28;20197;-81
2022/07/01 02:54:26;;;;;;;34.40;24.10;;;;;;;26.23;28.18;100670.81;5046069;28;20114;-80
2022/07/01 02:56:53;;;;;;;34.90;23.38;;;;;;;26.98;28.67;100794.41;5051285;28;20052;-81
2022/07/01 02:59:20;;;;;;;29.55;23.63;;;;;;;26.96;28.75;100795.72;5050028;28;20045;-82
2022/07/01 03:01:46;;;;;;;29.52;22.58;;;;;;;26.69;28.55;100749.13;5051392;28;20044;-81
2022/07/01 03:04:13;;;;;;;29.35;23.05;;;;;;;26.92;28.65;100784.50;5051215;28;20139;-82
2022/07/01 03:06:41;;;;;;;30.95;23.08;;;;;;;26.91;28.53;100779.28;5051034;28;20045;-81
2022/07/01 03:09:07;;;;;;;29.08;23.33;;;;;;;26.96;28.94;100788.38;5051170;28;20052;-81
2022/07/01 03:11:34;;;;;;;28.13;22.58;;;;;;;26.66;29.25;100750.44;5070450;28;20056;-81
2022/07/01 03:14:01;;;;;;;27.98;21.35;;;;;;;26.99;29.03;100806.97;5056837;28;20365;-79
2022/07/01 03:16:28;;;;;;;28.02;20.70;;;;;;;26.51;29.24;100731.84;5063637;28;20056;-82
2022/07/01 03:18:55;;;;;;;29.85;22.45;;;;;;;26.70;28.93;100769.84;5069381;28;20044;-82
2022/07/01 03:21:21;;;;;;;28.27;20.85;;;;;;;26.92;28.58;100822.63;5088916;28;20088;-82
2022/07/01 03:23:48;;;;;;;25.33;21.38;;;;;;;26.79;28.48;100811.97;5068046;28;20047;-80
2022/07/01 03:26:15;;;;;;;24.10;19.27;;;;;;;26.89;28.34;100814.09;5069977;28;20082;-81
2022/07/01 03:28:41;;;;;;;29.33;20.20;;;;;;;26.72;28.17;100797.66;5051564;28;20056;-80
2022/07/01 03:31:08;;;;;;;24.52;19.38;;;;;;;26.84;28.50;100812.09;5051770;28;20052;-81
2022/07/01 03:33:35;;;;;;;27.77;19.13;;;;;;;26.36;28.56;100736.94;5051359;28;20052;-81
2022/07/01 03:36:02;;;;;;;24.35;20.65;;;;;;;26.81;28.53;100815.28;5069152;28;20048;-81
2022/07/01 03:38:28;;;;;;;24.92;19.45;;;;;;;26.55;28.60;100779.31;5068667;28;20056;-81
2022/07/01 03:40:55;;;;;;;25.48;18.05;;;;;;;26.81;29.00;100809.84;5031646;28;20053;-79
2022/07/01 03:43:22;;;;;;;25.40;17.73;;;;;;;26.96;28.69;100831.97;5030980;28;20331;-80
2022/07/01 03:45:48;;;;;;;23.90;18.20;;;;;;;26.93;29.24;100810.66;5031105;28;20138;-82
2022/07/01 03:48:16;;;;;;;22.23;17.90;;;;;;;26.69;29.48;100784.53;5049328;28;20053;-79
2022/07/01 03:50:43;;;;;;;21.63;15.70;;;;;;;26.80;29.09;100824.53;5048036;28;20480;-82
2022/07/01 03:55:54;;;;;;;21.27;17.48;;;;;;;26.80;29.15;100830.00;5048848;28;20140;-81
2022/07/01 03:58:21;;;;;;;24.63;16.80;;;;;;;26.82;29.66;100827.84;5030780;28;20114;-81
2022/07/01 04:00:48;;;;;;;27.25;16.67;;;;;;;26.73;29.87;100815.66;5029839;28;20405;-81
2022/07/01 04:03:14;;;;;;;25.20;17.92;;;;;;;26.60;29.28;100784.06;5030056;28;20056;-81
2022/07/01 04:05:41;;;;;;;24.00;18.60;;;;;;;26.76;29.50;100817.91;5038449;28;20209;-81
2022/07/01 04:08:11;;;;;;;26.10;18.40;;;;;;;26.77;29.62;100819.56;5049901;28;20051;-81
2022/07/01 04:10:39;;;;;;;25.67;19.23;;;;;;;26.67;29.56;100798.38;5048590;28;20056;-79
2022/07/01 04:13:06;;;;;;;28.00;21.77;;;;;;;26.35;29.14;100740.75;5049375;28;20087;-81
2022/07/01 04:15:55;;;;;;;30.30;22.55;;;;;;;26.80;28.97;100817.19;5066929;28;20129;-79
2022/07/01 04:18:22;;;;;;;28.80;22.70;;;;;;;26.83;29.41;100807.72;5065877;28;20484;-81
2022/07/01 04:22:32;;;;;;;26.83;21.70;;;;;;;26.62;29.67;100787.38;5066288;28;20495;-81
2022/07/01 04:23:36;;;;;;;29.08;22.88;;;;;;;26.08;29.40;100711.28;5065385;28;20052;-81
2022/07/01 04:26:06;;;;;;;28.85;22.85;;;;;;;26.28;28.89;100740.03;5065342;28;20527;-81
2022/07/01 04:28:54;;;;;;;31.27;23.83;;;;;;;26.34;29.56;100756.25;5064335;28;20136;-81
2022/07/01 04:31:23;;;;;;;37.50;26.13;;;;;;;26.62;29.27;100807.25;5064423;28;20052;-81
2022/07/01 04:33:50;;;;;;;39.50;29.00;;;;;;;26.46;27.95;100783.47;5048266;28;20439;-82
2022/07/01 04:36:17;;;;;;;36.65;28.45;;;;;;;26.53;28.31;100795.09;5049216;28;20110;-82
2022/07/01 04:38:44;;;;;;;37.25;30.17;;;;;;;26.13;28.07;100719.56;5063405;28;20072;-82
2022/07/01 04:44:03;;;;;;;38.20;26.90;;;;;;;26.53;29.28;100796.94;5047049;28;20073;-81
2022/07/01 04:46:30;;;;;;;35.63;26.45;;;;;;;26.33;29.03;100772.78;5045779;28;20053;-82
2022/07/01 04:48:57;;;;;;;33.63;28.15;;;;;;;26.04;29.32;100714.72;5046051;28;20051;-79
2022/07/01 04:51:23;;;;;;;35.20;27.40;;;;;;;26.65;29.36;100814.13;5028713;28;20492;-82
2022/07/01 04:53:50;;;;;;;35.17;28.95;;;;;;;26.32;29.33;100754.81;5042107;28;20049;-78
2022/07/01 04:56:17;;;;;;;38.45;29.90;;;;;;;26.71;29.37;100806.91;5045155;28;20061;-81
2022/07/01 04:58:44;;;;;;;44.42;34.28;;;;;;;26.20;28.62;100731.16;5045495;28;20052;-81
2022/07/01 05:01:11;;;;;;;49.70;34.92;;;;;;;26.77;28.90;100820.38;5045267;28;20067;-81
2022/07/01 05:03:39;;;;;;;46.65;39.53;;;;;;;26.51;28.78;100780.84;5045087;28;20396;-80
2022/07/01 05:06:06;;;;;;;50.22;40.42;;;;;;;26.62;28.39;100771.84;5061496;28;20051;-82
2022/07/01 05:08:32;;;;;;;50.25;40.20;;;;;;;26.84;29.13;100798.47;5045289;28;20056;-82
2022/07/01 05:10:59;;;;;;;49.65;39.22;;;;;;;26.86;28.39;100810.78;5046441;28;20107;-81
2022/07/01 05:13:26;;;;;;;49.67;41.17;;;;;;;26.90;27.99;100793.97;5048941;28;20053;-80
2022/07/01 05:15:56;;;;;;;48.00;42.17;;;;;;;27.03;27.78;100799.16;5067235;28;20400;-80
2022/07/01 05:23:53;;;;;;;49.92;40.20;;;;;;;26.74;26.89;100731.00;5066608;28;20109;-82
2022/07/01 05:26:20;;;;;;;55.45;43.35;;;;;;;27.19;26.93;100789.44;5048941;28;20052;-81
2022/07/01 05:28:47;;;;;;;49.28;40.75;;;;;;;27.41;27.83;100809.47;5067232;28;20193;-80
2022/07/01 05:31:14;;;;;;;57.88;45.22;;;;;;;27.19;28.30;100759.44;5048892;28;20063;-79
2022/07/01 05:33:42;;;;;;;49.65;40.85;;;;;;;26.70;28.41;100663.66;5048532;28;20088;-81
2022/07/01 05:36:09;;;;;;;50.63;41.45;;;;;;;27.60;27.75;100806.53;5067206;28;20055;-81
2022/07/01 05:38:36;;;;;;;50.20;42.15;;;;;;;27.68;27.96;100803.44;5064450;28;20044;-82
2022/07/01 05:41:03;;;;;;;47.85;39.00;;;;;;;27.72;27.46;100807.34;5046539;28;20283;-81
2022/07/01 05:43:30;;;;;;;47.95;38.20;;;;;;;27.57;27.48;100768.88;5045950;28;20135;-80
2022/07/01 05:45:57;;;;;;;41.10;36.40;;;;;;;27.83;28.24;100803.72;5028437;28;20053;-82
2022/07/01 05:48:24;;;;;;;45.88;37.20;;;;;;;27.73;27.91;100770.78;5028264;28;20084;-82
2022/07/01 05:50:51;;;;;;;45.17;37.70;;;;;;;28.07;28.26;100801.69;5046219;28;20479;-80
2022/07/01 05:53:18;;;;;;;47.53;38.17;;;;;;;27.54;27.11;100693.84;5028105;28;20053;-80
2022/07/01 05:55:45;;;;;;;48.25;36.88;;;;;;;28.23;26.35;100764.56;5044609;28;20037;-82
2022/07/01 05:58:13;;;;;;;43.38;35.85;;;;;;;28.60;26.86;100796.78;5044702;28;20437;-81
2022/07/01 06:00:41;;;;;;;42.22;34.70;;;;;;;28.53;26.79;100761.47;5044701;28;20459;-81
2022/07/01 06:03:13;;;;;;;39.40;33.80;;;;;;;28.34;26.90;100722.66;5044410;28;20057;-81
2022/07/01 06:05:41;;;;;;;38.90;32.50;;;;;;;28.86;27.05;100799.84;5027971;28;20468;-81
2022/07/01 06:08:11;;;;;;;44.33;32.65;;;;;;;28.20;27.96;100664.03;5044439;28;20077;-82
2022/07/01 06:10:37;;;;;;;36.92;29.67;;;;;;;28.30;27.75;100666.09;5035816;28;20049;-80
2022/07/01 06:13:05;;;;;;;36.38;29.27;;;;;;;28.96;27.09;100767.22;5048432;28;20135;-82
2022/07/01 06:15:32;;;;;;;30.92;26.58;;;;;;;29.05;27.24;100775.78;5047297;28;20044;-83
2022/07/01 06:17:59;;;;;;;33.58;28.20;;;;;;;27.73;26.13;100558.06;5040703;28;20056;-81
2022/07/01 06:20:26;;;;;;;53.50;31.10;;;;;;;28.72;26.35;100729.22;5047538;28;20568;-81
2022/07/01 06:22:53;;;;;;;36.08;31.58;;;;;;;28.84;25.98;100744.66;5048238;28;20589;-81
2022/07/01 06:25:20;;;;;;;34.63;28.25;;;;;;;28.67;25.62;100739.25;5066476;28;20044;-82
2022/07/01 06:27:47;;;;;;;38.95;29.08;;;;;;;28.86;26.71;100775.25;5051431;28;20127;-82
2022/07/01 06:30:14;;;;;;;33.80;28.58;;;;;;;28.92;26.89;100782.44;5028203;28;20045;-81
2022/07/01 06:32:41;;;;;;;27.17;19.90;;;;;;;29.02;26.80;100774.38;5029664;28;20068;-82
2022/07/01 06:35:08;;;;;;;18.05;14.35;;;;;;;29.13;26.59;100762.53;5050256;28;20413;-81
2022/07/01 06:37:35;;;;;;;18.70;13.07;;;;;;;29.02;26.42;100713.44;5032437;28;20600;-80
2022/07/01 06:40:04;;;;;;;14.32;11.10;;;;;;;29.30;26.51;100746.03;5028903;28;20060;-80
2022/07/01 06:42:32;;;;;;;13.77;11.50;;;;;;;29.34;26.70;100744.41;5030102;28;20045;-82
2022/07/01 06:44:59;;;;;;;23.58;18.73;;;;;;;29.32;26.61;100738.41;5029113;28;20054;-80
2022/07/01 06:47:26;;;;;;;32.10;21.15;;;;;;;29.49;26.40;100743.75;5029483;28;20053;-80
2022/07/01 06:49:52;;;;;;;25.65;20.25;;;;;;;29.34;26.73;100697.09;5032730;28;20057;-81
2022/07/01 06:52:20;;;;;;;27.80;20.38;;;;;;;28.71;26.76;100585.50;5029362;28;20058;-80
2022/07/01 06:54:47;;;;;;;23.17;19.67;;;;;;;29.61;26.85;100738.94;5051170;28;20067;-80
2022/07/01 06:57:14;;;;;;;22.58;18.15;;;;;;;29.60;27.67;100752.88;5049593;28;20488;-80
2022/07/01 06:59:41;;;;;;;27.88;17.70;;;;;;;29.49;26.81;100754.69;5049575;28;20052;-81
2022/07/01 07:02:07;;;;;;;23.50;16.10;;;;;;;28.84;26.75;100652.59;5048076;28;20059;-79
2022/07/01 07:04:35;;;;;;;21.75;16.67;;;;;;;29.13;26.81;100690.63;5063403;28;20401;-78
2022/07/01 07:07:21;;;;;;;23.52;14.55;;;;;;;28.91;27.36;100649.63;5049001;28;20067;-80
2022/07/01 07:09:48;;;;;;;21.60;16.13;;;;;;;29.21;27.81;100683.88;5048475;28;20500;-80
2022/07/01 07:12:14;;;;;;;16.95;11.40;;;;;;;29.81;26.67;100754.75;5037657;28;20045;-79
2022/07/01 07:14:41;;;;;;;18.60;11.55;;;;;;;29.84;27.33;100741.63;5031634;28;20128;-78
2022/07/01 07:17:08;;;;;;;24.73;16.75;;;;;;;29.95;26.87;100735.13;5049545;28;20499;-80
2022/07/01 07:19:35;;;;;;;31.02;18.55;;;;;;;30.01;27.01;100723.97;5031208;28;20056;-80
2022/07/01 07:22:01;;;;;;;19.88;15.88;;;;;;;30.04;27.09;100717.13;5030961;28;20260;-81
2022/07/01 07:24:28;;;;;;;17.13;13.40;;;;;;;30.18;27.11;100729.28;5038937;28;20072;-80
2022/07/01 07:26:55;;;;;;;14.63;7.10;;;;;;;30.22;26.87;100713.13;5066998;28;20487;-82
2022/07/01 07:29:22;;;;;;;8.20;4.72;;;;;;;30.35;27.34;100748.31;5051509;28;20303;-81
2022/07/01 07:31:48;;;;;;;7.03;4.57;;;;;;;30.12;27.33;100707.59;5053018;28;20044;-79
2022/07/01 07:34:15;;;;;;;5.28;3.78;;;;;;;30.42;28.17;100743.41;5057503;28;20185;-80
2022/07/01 07:36:41;;;;;;;8.00;3.33;;;;;;;30.44;27.33;100722.06;5065693;28;20044;-81
2022/07/01 07:39:08;;;;;;;8.05;3.42;;;;;;;30.42;26.85;100707.81;5079627;28;20166;-80
2022/07/01 07:41:35;;;;;;;4.78;2.97;;;;;;;30.63;25.84;100732.56;5064977;28;20520;-81
2022/07/01 07:44:01;;;;;;;9.05;4.53;;;;;;;30.77;25.99;100730.97;5045471;28;20083;-80
2022/07/01 07:46:28;;;;;;;6.32;3.55;;;;;;;30.62;25.75;100707.06;5048420;28;20099;-80
2022/07/01 07:48:55;;;;;;;7.60;3.80;;;;;;;30.83;25.26;100731.88;5029859;28;20140;-80
2022/07/01 07:51:22;;;;;;;7.88;3.70;;;;;;;30.70;25.53;100699.44;5030074;28;20049;-79
2022/07/01 07:53:52;;;;;;;6.50;3.58;;;;;;;31.15;25.10;100758.28;5031117;28;20512;-80
2022/07/01 07:56:22;;;;;;;8.18;3.08;;;;;;;30.71;23.95;100670.94;5031333;28;20061;-79
2022/07/01 07:58:49;;;;;;;5.70;3.53;;;;;;;31.18;23.86;100741.28;5050703;28;20053;-80
2022/07/01 08:01:15;;;;;;;7.13;3.85;;;;;;;30.39;25.07;100626.19;5067908;28;20469;-81
2022/07/01 08:03:42;;;;;;;6.70;2.75;;;;;;;31.14;23.92;100742.91;5067623;28;20056;-80
2022/07/01 08:06:10;;;;;;;6.53;2.78;;;;;;;31.32;23.65;100753.38;5069124;28;20079;-79
2022/07/01 08:08:37;;;;;;;4.05;2.90;;;;;;;31.12;24.03;100726.75;5049812;28;20048;-79
2022/07/01 08:11:04;;;;;;;7.13;3.22;;;;;;;31.12;24.35;100710.28;5050190;28;20100;-80
2022/07/01 08:13:31;;;;;;;5.22;3.10;;;;;;;31.19;23.73;100721.84;5047053;28;20056;-79
2022/07/01 08:16:03;;;;;;;6.75;2.90;;;;;;;31.42;23.52;100741.63;5030163;28;20380;-79
2022/07/01 08:18:49;;;;;;;8.80;4.32;;;;;;;31.12;23.81;100693.84;5033019;28;20440;-81
2022/07/01 08:21:29;;;;;;;5.45;2.97;;;;;;;31.47;23.48;100752.63;5031795;28;20118;-81
2022/07/01 08:23:56;;;;;;;4.22;2.45;;;;;;;31.09;24.48;100692.47;5030021;28;20061;-81
2022/07/01 08:26:23;;;;;;;5.60;2.42;;;;;;;31.40;23.45;100749.31;5029711;28;20111;-80
2022/07/01 08:28:50;;;;;;;5.13;2.70;;;;;;;31.50;23.33;100750.13;5059578;28;20122;-80
2022/07/01 08:31:19;;;;;;;3.90;2.83;;;;;;;31.44;22.75;100755.91;5046493;28;20470;-81
2022/07/01 08:33:46;;;;;;;2.70;2.20;;;;;;;31.27;23.73;100737.75;5047591;28;20045;-80
2022/07/01 08:36:13;;;;;;;11.00;3.95;;;;;;;31.39;24.37;100756.72;5029937;28;20052;-80
2022/07/01 08:38:41;;;;;;;6.60;2.70;;;;;;;31.56;24.73;100770.19;5029009;28;20056;-81
2022/07/01 08:41:12;;;;;;;4.95;2.97;;;;;;;31.69;23.95;100775.13;5027234;28;20052;-81
2022/07/01 08:43:39;;;;;;;5.75;2.47;;;;;;;31.78;23.59;100760.88;5029103;28;20061;-79
2022/07/01 08:46:09;;;;;;;4.85;2.95;;;;;;;31.85;23.85;100765.00;5030978;28;20067;-80
2022/07/01 08:48:42;;;;;;;7.28;2.22;;;;;;;31.49;23.67;100709.28;5032097;28;20059;-81
2022/07/01 08:51:12;;;;;;;7.40;2.92;;;;;;;31.88;23.53;100766.34;5030319;28;20488;-81
2022/07/01 08:53:39;;;;;;;7.03;3.00;;;;;;;31.18;23.49;100648.88;5034373;28;20459;-81
2022/07/01 08:58:52;;;;;;;5.28;3.17;;;;;;;32.06;24.98;100762.25;5068113;28;20079;-81
2022/07/01 09:01:21;;;;;;;14.65;4.45;;;;;;;32.19;25.26;100782.81;5050406;28;20052;-81
2022/07/01 09:03:52;;;;;;;11.23;5.20;;;;;;;32.22;25.25;100788.59;5050028;28;20508;-83
2022/07/01 09:06:31;;;;;;;7.10;4.47;;;;;;;32.08;25.61;100754.56;5050643;28;20203;-81
2022/07/01 09:09:12;;;;;;;7.32;5.97;;;;;;;31.43;26.02;100656.31;5050602;28;20049;-81
2022/07/01 09:11:53;;;;;;;6.78;5.05;;;;;;;31.50;26.35;100658.78;5067678;28;20118;-80
2022/07/01 09:14:26;;;;;;;10.27;7.05;;;;;;;30.96;26.61;100585.25;5051437;28;20079;-82
2022/07/01 09:17:06;;;;;;;14.40;6.65;;;;;;;32.30;25.99;100784.47;5052132;28;20056;-80
2022/07/01 09:19:40;;;;;;;9.38;7.00;;;;;;;32.41;25.21;100757.81;5069600;28;20055;-80
2022/07/01 09:22:12;;;;;;;12.77;7.88;;;;;;;32.50;25.38;100767.97;5068206;28;20088;-81
2022/07/01 09:24:44;;;;;;;15.00;9.80;;;;;;;32.53;26.63;100756.44;5066439;28;20044;-82
2022/07/01 09:27:13;;;;;;;15.02;9.75;;;;;;;32.61;26.11;100768.75;5067578;28;20052;-78
2022/07/01 09:29:45;;;;;;;18.40;9.60;;;;;;;32.66;26.51;100774.25;5049671;28;20574;-81
2022/07/01 09:32:17;;;;;;;18.55;9.93;;;;;;;32.69;26.34;100775.59;5049055;28;20045;-82
2022/07/01 09:34:46;;;;;;;16.73;9.70;;;;;;;32.34;26.08;100714.16;5049133;28;20051;-83
2022/07/01 09:37:17;;;;;;;11.02;9.30;;;;;;;32.79;26.85;100786.56;5049292;28;20368;-84
2022/07/01 09:39:46;;;;;;;14.43;9.70;;;;;;;32.35;26.29;100721.28;5039688;28;20053;-81
2022/07/01 09:42:14;;;;;;;16.63;11.10;;;;;;;32.71;26.54;100784.41;5029092;28;20075;-80
2022/07/01 09:44:55;;;;;;;15.07;12.23;;;;;;;32.70;27.87;100771.78;5029726;28;20140;-81
2022/07/01 09:47:30;;;;;;;15.95;11.25;;;;;;;32.88;27.38;100806.06;5046771;28;20491;-79
2022/07/01 09:49:57;;;;;;;17.67;15.68;;;;;;;32.94;27.20;100814.00;5029131;28;20503;-82
2022/07/01 09:52:25;;;;;;;19.90;14.93;;;;;;;32.70;27.17;100780.00;5028873;28;20045;-79
2022/07/01 09:54:52;;;;;;;27.27;13.52;;;;;;;32.70;27.66;100791.00;5047474;28;20048;-79
2022/07/01 09:57:20;;;;;;;17.40;10.50;;;;;;;32.97;26.80;100826.38;5066018;28;20059;-81
2022/07/01 09:59:48;;;;;;;12.90;10.10;;;;;;;32.89;27.13;100824.19;5046339;28;20056;-81
2022/07/01 10:02:18;;;;;;;13.48;8.95;;;;;;;32.88;27.00;100819.78;5061971;28;20446;-82
2022/07/01 10:04:52;;;;;;;10.75;8.05;;;;;;;32.80;27.30;100807.47;5061161;28;20060;-81
2022/07/01 10:08:08;;;;;;;10.23;7.72;;;;;;;32.83;26.72;100804.13;5049443;28;20315;-78
2022/07/01 10:10:47;;;;;;;8.27;6.97;;;;;;;32.96;26.96;100822.81;5029419;28;20049;-81
2022/07/01 10:13:17;;;;;;;9.45;7.03;;;;;;;32.78;27.13;100793.16;5053585;28;20105;-80
2022/07/01 10:15:46;;;;;;;9.52;5.35;;;;;;;32.44;27.28;100735.28;5052949;28;20052;-79
2022/07/01 10:18:26;;;;;;;9.15;5.47;;;;;;;33.10;27.49;100813.97;5052998;28;20118;-80
2022/07/01 10:20:56;;;;;;;7.37;5.20;;;;;;;33.27;26.48;100817.16;5052516;28;20087;-81
2022/07/01 10:23:37;;;;;;;8.75;4.00;;;;;;;32.69;26.11;100682.16;5053653;28;20060;-81
2022/07/01 10:26:10;;;;;;;8.32;4.18;;;;;;;33.35;26.45;100805.59;5071246;28;20140;-82
2022/07/01 10:28:48;;;;;;;6.38;4.70;;;;;;;33.53;26.04;100817.03;5052586;28;20052;-79
2022/07/01 10:31:19;;;;;;;11.80;4.53;;;;;;;33.15;25.61;100737.75;5057635;28;20044;-81
2022/07/01 10:33:56;;;;;;;7.00;4.63;;;;;;;33.82;25.39;100825.41;5073268;28;20558;-81
2022/07/01 10:36:34;;;;;;;4.80;3.72;;;;;;;33.56;25.55;100755.94;5054454;28;20139;-79
2022/07/01 10:39:06;;;;;;;12.25;4.57;;;;;;;34.17;25.09;100837.25;5051055;28;20052;-81
2022/07/01 10:41:40;;;;;;;6.60;4.03;;;;;;;33.96;25.05;100793.34;5050415;28;20503;-78
2022/07/01 10:44:14;;;;;;;8.40;4.60;;;;;;;33.92;24.74;100770.25;5054694;28;20051;-81
2022/07/01 10:46:56;;;;;;;6.63;4.50;;;;;;;34.59;24.86;100822.81;5055534;28;20484;-80
2022/07/01 10:49:35;;;;;;;7.37;5.13;;;;;;;34.80;24.28;100828.09;5072869;28;20139;-80
2022/07/01 10:52:18;;;;;;;10.13;6.28;;;;;;;34.46;24.10;100735.28;5054463;28;20298;-78
2022/07/01 10:54:48;;;;;;;9.52;4.75;;;;;;;34.99;24.33;100792.28;5014192;28;20053;-80
2022/07/01 10:57:23;;;;;;;6.15;3.95;;;;;;;35.29;24.58;100822.25;5014688;28;20546;-80
2022/07/01 10:59:54;;;;;;;7.03;3.55;;;;;;;34.93;24.23;100754.84;5031327;28;20045;-81
2022/07/01 11:02:28;;;;;;;8.35;3.92;;;;;;;34.74;24.39;100735.53;5033110;28;20448;-81
2022/07/01 11:05:09;;;;;;;9.55;4.07;;;;;;;35.32;23.96;100779.47;5032558;28;20233;-80
2022/07/01 11:07:39;;;;;;;5.95;4.00;;;;;;;34.71;24.46;100625.84;5032062;28;20049;-80
2022/07/01 11:10:08;;;;;;;8.35;3.65;;;;;;;35.68;24.09;100762.34;5032026;28;20061;-80
2022/07/01 11:12:35;;;;;;;5.22;3.78;;;;;;;35.93;23.69;100797.84;5031667;28;20353;-79
2022/07/01 11:15:07;;;;;;;4.55;3.30;;;;;;;36.04;23.43;100789.38;5032850;28;20100;-80
2022/07/01 11:17:34;;;;;;;6.65;3.63;;;;;;;35.92;23.62;100749.22;5033059;28;20257;-79
2022/07/01 11:20:02;;;;;;;9.40;3.85;;;;;;;36.49;23.07;100793.25;5014595;28;20059;-79
2022/07/01 11:22:32;;;;;;;8.85;4.13;;;;;;;36.42;23.15;100792.03;5019856;28;20045;-79
2022/07/01 11:25:02;;;;;;;7.38;4.20;;;;;;;35.78;24.17;100670.22;5035146;28;20071;-79
2022/07/01 11:27:30;;;;;;;8.75;3.72;;;;;;;36.47;23.63;100780.88;5035064;28;20049;-80
2022/07/01 11:30:00;;;;;;;8.30;4.30;;;;;;;36.26;23.47;100758.31;5034749;28;20061;-80
2022/07/01 11:32:30;;;;;;;5.22;3.80;;;;;;;36.28;23.21;100778.19;5032625;28;20041;-79
2022/07/01 11:35:02;;;;;;;5.05;3.65;;;;;;;34.98;23.76;100631.50;5049145;28;20052;-79
2022/07/01 11:40:29;;;;;;;6.75;4.10;;;;;;;35.94;24.22;100788.41;5044307;28;20040;-80
2022/07/01 11:43:21;;;;;;;6.18;4.28;;;;;;;35.61;24.58;100723.25;5034040;28;20136;-80
2022/07/01 11:45:48;;;;;;;5.82;4.38;;;;;;;35.35;23.72;100668.47;5033177;28;20076;-81